Time;durP1;ratioP1;P1;durP2;ratioP2;P2;SDS_P1;SDS_P2;PMS_P1;PMS_P2;Temp;Humidity;BMP_temperature;BMP_pressure;BME280_temperature;BME280_humidity;BME280_pressure;Samples;Min_cycle;Max_cycle;Signal;HPM_P1;HPM_P2
2021/08/09 00:00:51;;;;;;;4.15;1.80;;;19.50;76.60;;;;;;5049989;28;20083;-71
2021/08/09 00:03:16;;;;;;;3.63;1.10;;;19.50;76.70;;;;;;5052746;28;20036;-71
2021/08/09 00:05:42;;;;;;;4.28;1.65;;;19.40;76.50;;;;;;5052013;28;20028;-71
2021/08/09 00:08:08;;;;;;;1.27;0.88;;;19.50;76.90;;;;;;5052225;28;20408;-71
2021/08/09 00:10:34;;;;;;;4.93;1.30;;;19.40;77.00;;;;;;5051547;28;20102;-71
2021/08/09 00:13:00;;;;;;;8.90;1.63;;;19.40;77.20;;;;;;5051579;28;20476;-71
2021/08/09 00:15:25;;;;;;;4.55;1.17;;;19.30;77.80;;;;;;5050725;28;20048;-71
2021/08/09 00:17:52;;;;;;;4.63;1.90;;;19.20;78.20;;;;;;5052273;28;20108;-71
2021/08/09 00:20:18;;;;;;;3.72;1.02;;;19.20;78.70;;;;;;5047767;28;20025;-71
2021/08/09 00:22:47;;;;;;;3.15;1.17;;;19.10;79.00;;;;;;5051286;28;20028;-71
2021/08/09 00:25:13;;;;;;;1.45;0.80;;;19.00;79.30;;;;;;5048313;28;20135;-71
2021/08/09 00:27:39;;;;;;;2.83;1.15;;;19.00;79.40;;;;;;5050946;28;20036;-71
2021/08/09 00:30:07;;;;;;;2.85;1.55;;;18.90;79.60;;;;;;5043012;28;20041;-71
2021/08/09 00:32:33;;;;;;;2.90;1.35;;;18.90;79.50;;;;;;5038674;28;20440;-71
2021/08/09 00:34:58;;;;;;;2.55;1.13;;;18.90;79.40;;;;;;5047269;28;20064;-71
2021/08/09 00:37:27;;;;;;;1.17;1.08;;;19.00;79.50;;;;;;5045781;28;20074;-71
2021/08/09 00:39:55;;;;;;;2.80;0.90;;;18.90;79.50;;;;;;5048282;28;20021;-71
2021/08/09 00:42:21;;;;;;;1.30;0.63;;;18.90;79.50;;;;;;5047423;28;20112;-71
2021/08/09 00:44:47;;;;;;;28.80;2.17;;;18.90;79.60;;;;;;5045866;28;20119;-70
2021/08/09 00:47:18;;;;;;;3.90;1.35;;;18.90;79.80;;;;;;5046279;28;20132;-71
2021/08/09 00:49:47;;;;;;;3.00;0.88;;;18.90;79.90;;;;;;5046846;28;20029;-71
2021/08/09 00:52:13;;;;;;;1.83;0.93;;;18.90;79.80;;;;;;5050014;28;20541;-71
2021/08/09 00:54:39;;;;;;;4.68;1.08;;;18.80;79.80;;;;;;5044646;28;20025;-71
2021/08/09 00:57:09;;;;;;;3.55;1.42;;;18.80;79.70;;;;;;5050068;28;20033;-71
2021/08/09 00:59:36;;;;;;;3.10;1.20;;;18.80;79.80;;;;;;5047551;28;20488;-71
2021/08/09 01:02:03;;;;;;;2.42;0.95;;;18.80;79.80;;;;;;5064023;28;20167;-71
2021/08/09 01:04:28;;;;;;;3.25;0.93;;;18.80;79.90;;;;;;5050310;28;20025;-71
2021/08/09 01:06:55;;;;;;;4.35;1.63;;;18.80;79.80;;;;;;5045879;28;20036;-71
2021/08/09 01:09:39;;;;;;;7.47;1.23;;;18.80;80.00;;;;;;5053694;28;20021;-71
2021/08/09 01:12:34;;;;;;;4.80;0.95;;;18.80;80.10;;;;;;5052610;28;20392;-71
2021/08/09 01:15:06;;;;;;;4.03;1.95;;;18.70;80.10;;;;;;5040253;28;20033;-71
2021/08/09 01:17:41;;;;;;;6.82;1.35;;;18.70;80.30;;;;;;5053005;28;20021;-71
2021/08/09 01:20:19;;;;;;;5.95;1.50;;;18.70;80.30;;;;;;5055608;28;20029;-71
2021/08/09 01:22:54;;;;;;;3.55;1.92;;;18.70;80.50;;;;;;5065725;28;20049;-71
2021/08/09 01:25:35;;;;;;;5.43;1.40;;;18.70;80.60;;;;;;5046929;28;20120;-71
2021/08/09 01:28:02;;;;;;;2.72;0.82;;;18.60;80.80;;;;;;5044285;28;20033;-71
2021/08/09 01:30:29;;;;;;;2.35;1.20;;;18.60;80.80;;;;;;5053107;28;20017;-72
2021/08/09 01:32:55;;;;;;;1.48;0.85;;;18.50;80.90;;;;;;5053771;28;20021;-71
2021/08/09 01:35:24;;;;;;;2.25;1.00;;;18.50;80.90;;;;;;5051536;28;20032;-72
2021/08/09 01:37:59;;;;;;;3.83;1.25;;;18.60;81.10;;;;;;5048668;28;20032;-71
2021/08/09 01:40:29;;;;;;;2.42;1.10;;;18.50;80.90;;;;;;5048761;28;20025;-72
2021/08/09 01:42:56;;;;;;;1.83;0.98;;;18.50;80.90;;;;;;5060818;28;20025;-71
2021/08/09 01:45:22;;;;;;;0.60;0.57;;;18.50;81.10;;;;;;5052356;28;20049;-71
2021/08/09 01:47:49;;;;;;;1.25;0.60;;;18.50;81.00;;;;;;5068287;28;20029;-71
2021/08/09 01:50:16;;;;;;;2.28;0.93;;;18.50;81.10;;;;;;5051745;28;20051;-71
2021/08/09 01:52:43;;;;;;;1.40;0.52;;;18.50;81.30;;;;;;5051604;28;20484;-71
2021/08/09 01:55:14;;;;;;;3.63;0.73;;;18.50;81.20;;;;;;5051634;28;20064;-71
2021/08/09 01:57:45;;;;;;;;;;;18.50;81.00;;;;;;5050591;28;20021;-72
2021/08/09 02:00:15;;;;;;;8.35;1.60;;;18.50;80.60;;;;;;5052561;28;19915;-71
2021/08/09 02:02:41;;;;;;;4.45;1.70;;;18.50;80.80;;;;;;5052990;28;20033;-71
2021/08/09 02:05:11;;;;;;;2.90;1.48;;;18.50;80.70;;;;;;5066787;28;20079;-71
2021/08/09 02:07:41;;;;;;;8.20;2.50;;;18.50;80.80;;;;;;5051281;28;20033;-71
2021/08/09 02:10:09;;;;;;;9.95;2.42;;;18.50;80.60;;;;;;5049700;28;20156;-71
2021/08/09 02:12:47;;;;;;;5.22;2.05;;;18.60;80.70;;;;;;5064161;28;20033;-71
2021/08/09 02:15:17;;;;;;;6.20;2.00;;;18.60;80.80;;;;;;5039309;28;20060;-71
2021/08/09 02:17:50;;;;;;;6.20;1.90;;;18.60;80.30;;;;;;5046219;28;20036;-71
2021/08/09 02:20:29;;;;;;;8.10;2.83;;;18.70;80.60;;;;;;5042235;28;20445;-71
2021/08/09 02:23:02;;;;;;;7.30;2.17;;;18.70;80.00;;;;;;5037484;28;20030;-71
2021/08/09 02:25:32;;;;;;;9.38;2.13;;;18.70;79.60;;;;;;5049104;28;20036;-71
2021/08/09 02:28:13;;;;;;;11.25;2.83;;;18.80;79.30;;;;;;5049603;28;20078;-71
2021/08/09 02:30:44;;;;;;;12.10;2.88;;;18.80;79.50;;;;;;5048653;28;20029;-71
2021/08/09 02:33:10;;;;;;;5.95;2.35;;;18.80;79.20;;;;;;5050489;28;20061;-71
2021/08/09 02:35:37;;;;;;;9.57;2.38;;;18.80;79.00;;;;;;5048758;28;20060;-71
2021/08/09 02:38:05;;;;;;;11.68;2.42;;;18.80;79.00;;;;;;5052762;28;20032;-71
2021/08/09 02:40:32;;;;;;;8.70;2.92;;;18.80;78.90;;;;;;5048812;28;20192;-71
2021/08/09 02:42:58;;;;;;;12.88;3.28;;;18.80;79.20;;;;;;5052266;28;20021;-71
2021/08/09 02:45:26;;;;;;;11.88;3.33;;;18.90;79.30;;;;;;5050772;28;20048;-71
2021/08/09 02:47:52;;;;;;;9.65;3.05;;;18.90;79.70;;;;;;5062816;28;20025;-71
2021/08/09 02:50:18;;;;;;;16.95;3.20;;;18.90;79.60;;;;;;5047614;28;20021;-72
2021/08/09 02:52:44;;;;;;;11.50;3.28;;;18.90;79.40;;;;;;5050548;28;20048;-71
2021/08/09 02:55:14;;;;;;;22.92;3.50;;;18.90;79.20;;;;;;5051083;28;20017;-71
2021/08/09 02:57:40;;;;;;;11.40;2.60;;;18.90;79.50;;;;;;5047415;28;20024;-71
2021/08/09 03:00:08;;;;;;;13.40;2.70;;;18.90;78.90;;;;;;5047583;28;20504;-71
2021/08/09 03:02:37;;;;;;;17.48;2.83;;;18.90;78.30;;;;;;5050242;28;20530;-71
2021/08/09 03:05:05;;;;;;;7.60;1.75;;;18.90;78.30;;;;;;5051114;28;20029;-71
2021/08/09 03:07:35;;;;;;;8.88;2.40;;;18.90;77.90;;;;;;5051836;28;20029;-71
2021/08/09 03:10:02;;;;;;;8.23;2.78;;;18.80;78.10;;;;;;5048153;28;20049;-71
2021/08/09 03:12:29;;;;;;;7.35;2.75;;;18.80;78.40;;;;;;5050418;28;20037;-71
2021/08/09 03:14:54;;;;;;;9.05;2.47;;;18.80;78.40;;;;;;5043757;28;20039;-71
2021/08/09 03:17:20;;;;;;;8.70;2.47;;;18.70;78.80;;;;;;5050652;28;20195;-71
2021/08/09 03:19:46;;;;;;;6.65;2.35;;;18.80;78.80;;;;;;5061740;28;20476;-72
2021/08/09 03:22:11;;;;;;;9.05;2.83;;;18.70;78.80;;;;;;5044534;28;20033;-71
2021/08/09 03:24:38;;;;;;;8.30;2.40;;;18.70;78.80;;;;;;5049796;28;20079;-71
2021/08/09 03:27:04;;;;;;;8.10;2.60;;;18.70;79.20;;;;;;5048016;28;20381;-71
2021/08/09 03:29:30;;;;;;;5.13;1.77;;;18.80;79.00;;;;;;5050395;28;20112;-71
2021/08/09 03:31:56;;;;;;;4.32;1.90;;;18.70;78.20;;;;;;5048112;28;20035;-71
2021/08/09 03:34:22;;;;;;;3.15;1.05;;;18.70;78.30;;;;;;5048632;28;20017;-71
2021/08/09 03:36:49;;;;;;;3.47;1.48;;;18.60;78.40;;;;;;5049529;28;20564;-71
2021/08/09 03:39:16;;;;;;;5.97;1.60;;;18.50;78.90;;;;;;5050608;28;20021;-71
2021/08/09 03:41:42;;;;;;;8.35;1.98;;;18.50;79.70;;;;;;5050538;28;20101;-71
2021/08/09 03:44:08;;;;;;;6.72;2.17;;;18.50;79.40;;;;;;5049330;28;20036;-71
2021/08/09 03:46:34;;;;;;;4.20;2.35;;;18.40;80.00;;;;;;5050982;28;20052;-71
2021/08/09 03:49:04;;;;;;;5.13;1.15;;;18.40;80.40;;;;;;5050253;28;20119;-71
2021/08/09 03:51:31;;;;;;;10.60;2.95;;;18.40;80.20;;;;;;5050120;28;20032;-71
2021/08/09 03:53:57;;;;;;;8.20;2.33;;;18.40;80.50;;;;;;5050187;28;20069;-71
2021/08/09 03:56:22;;;;;;;6.88;0.98;;;18.30;80.70;;;;;;5048801;28;20033;-71
2021/08/09 03:58:48;;;;;;;4.10;1.58;;;18.30;80.80;;;;;;5042082;28;20044;-71
2021/08/09 04:01:15;;;;;;;4.95;1.40;;;18.20;81.00;;;;;;5044882;28;20070;-71
2021/08/09 04:03:41;;;;;;;7.75;1.73;;;18.30;81.20;;;;;;5050261;28;20059;-71
2021/08/09 04:06:09;;;;;;;10.77;2.05;;;18.20;81.50;;;;;;5048665;28;20629;-71
2021/08/09 04:08:35;;;;;;;5.78;1.88;;;18.20;81.70;;;;;;5050674;28;20115;-71
2021/08/09 04:11:00;;;;;;;11.60;2.38;;;18.10;81.60;;;;;;5048840;28;20032;-71
2021/08/09 04:13:26;;;;;;;3.15;1.85;;;18.10;81.90;;;;;;5064290;28;20064;-71
2021/08/09 04:15:52;;;;;;;3.88;1.23;;;18.10;81.70;;;;;;5050435;28;20029;-71
2021/08/09 04:18:18;;;;;;;3.38;1.50;;;18.10;81.80;;;;;;5046342;28;20107;-71
2021/08/09 04:20:44;;;;;;;12.98;2.22;;;18.00;81.90;;;;;;5049985;28;20048;-71
2021/08/09 04:23:10;;;;;;;4.65;1.52;;;18.00;82.10;;;;;;5050360;28;20021;-71
2021/08/09 04:25:36;;;;;;;9.55;2.97;;;18.00;82.30;;;;;;5048155;28;20029;-71
2021/08/09 04:28:01;;;;;;;7.40;1.65;;;18.00;82.40;;;;;;5048925;28;20045;-71
2021/08/09 04:30:28;;;;;;;9.25;2.90;;;18.00;82.10;;;;;;5047574;28;20388;-71
2021/08/09 04:32:53;;;;;;;5.47;2.75;;;18.00;82.30;;;;;;5051763;28;20029;-71
2021/08/09 04:35:19;;;;;;;9.98;2.95;;;18.00;82.20;;;;;;5046160;28;20108;-71
2021/08/09 04:37:49;;;;;;;9.13;2.90;;;18.00;81.90;;;;;;5046121;28;20021;-71
2021/08/09 04:40:15;;;;;;;13.93;2.92;;;18.00;81.80;;;;;;5049439;28;20024;-71
2021/08/09 04:42:41;;;;;;;8.25;1.77;;;18.00;81.60;;;;;;5037686;28;20377;-72
2021/08/09 04:45:10;;;;;;;10.63;3.25;;;18.10;81.10;;;;;;5047130;28;20103;-71
2021/08/09 04:47:37;;;;;;;11.93;2.50;;;18.10;81.40;;;;;;5046150;28;20036;-71
2021/08/09 04:50:04;;;;;;;13.02;3.28;;;18.20;81.20;;;;;;5049002;28;20480;-71
2021/08/09 04:52:30;;;;;;;12.23;2.88;;;18.10;81.50;;;;;;5049812;28;20372;-71
2021/08/09 04:54:56;;;;;;;19.30;3.13;;;18.20;81.30;;;;;;5047020;28;20025;-71
2021/08/09 04:57:21;;;;;;;18.20;3.60;;;18.20;81.40;;;;;;5049955;28;20038;-71
2021/08/09 04:59:47;;;;;;;13.45;3.28;;;18.20;81.40;;;;;;5048514;28;20025;-71
2021/08/09 05:02:13;;;;;;;9.15;3.20;;;18.30;81.30;;;;;;5049094;28;20055;-71
2021/08/09 05:04:39;;;;;;;14.10;3.67;;;18.20;81.50;;;;;;5049331;28;20036;-71
2021/08/09 05:07:05;;;;;;;9.63;2.30;;;18.30;81.70;;;;;;5048552;28;20181;-71
2021/08/09 05:09:35;;;;;;;11.55;2.75;;;18.30;81.00;;;;;;5047726;28;20064;-71
2021/08/09 05:12:01;;;;;;;12.05;3.17;;;18.40;80.50;;;;;;5043892;28;20120;-72
2021/08/09 05:14:28;;;;;;;11.10;3.33;;;18.40;80.50;;;;;;5047186;28;20029;-72
2021/08/09 05:16:54;;;;;;;11.80;2.72;;;18.40;80.50;;;;;;5049871;28;20029;-72
2021/08/09 05:19:20;;;;;;;14.60;3.42;;;18.40;80.00;;;;;;5049040;28;20037;-72
2021/08/09 05:21:45;;;;;;;8.15;1.88;;;18.40;80.10;;;;;;5040253;28;20037;-74
2021/08/09 05:24:11;;;;;;;17.75;3.40;;;18.40;79.50;;;;;;5051260;28;20025;-73
2021/08/09 05:26:37;;;;;;;12.48;2.53;;;18.40;79.70;;;;;;5048444;28;20051;-73
2021/08/09 05:29:03;;;;;;;18.15;3.17;;;18.40;79.40;;;;;;5049715;28;20108;-73
2021/08/09 05:31:29;;;;;;;13.43;3.10;;;18.40;79.70;;;;;;5049356;28;20033;-73
2021/08/09 05:33:58;;;;;;;12.32;3.10;;;18.40;79.80;;;;;;5045852;28;20127;-73
2021/08/09 05:36:24;;;;;;;17.80;2.60;;;18.40;80.20;;;;;;5045901;28;20055;-73
2021/08/09 05:38:50;;;;;;;14.75;2.63;;;18.40;79.50;;;;;;5047838;28;20028;-73
2021/08/09 05:41:17;;;;;;;15.57;2.63;;;18.40;79.90;;;;;;5045683;28;20059;-73
2021/08/09 05:43:42;;;;;;;17.70;3.20;;;18.40;79.40;;;;;;5046559;28;20050;-73
2021/08/09 05:46:09;;;;;;;14.80;3.10;;;18.40;79.30;;;;;;5045594;28;20041;-73
2021/08/09 05:48:36;;;;;;;6.40;2.30;;;18.50;79.60;;;;;;5045220;28;20457;-71
2021/08/09 05:51:02;;;;;;;7.13;2.13;;;18.40;79.30;;;;;;5046534;28;20059;-71
2021/08/09 05:53:31;;;;;;;13.02;2.60;;;18.40;79.30;;;;;;5044941;28;20021;-72
2021/08/09 05:55:57;;;;;;;8.45;1.85;;;18.40;79.50;;;;;;5051967;28;20033;-71
2021/08/09 05:58:23;;;;;;;10.98;3.08;;;18.40;79.40;;;;;;5047233;28;20082;-71
2021/08/09 06:00:49;;;;;;;12.43;2.50;;;18.40;79.90;;;;;;5044686;28;20112;-71
2021/08/09 06:03:22;;;;;;;10.65;2.33;;;18.40;79.90;;;;;;5049392;28;20059;-71
2021/08/09 06:05:54;;;;;;;10.98;2.15;;;18.40;79.80;;;;;;5048631;28;20032;-71
2021/08/09 06:08:23;;;;;;;16.52;3.13;;;18.40;79.70;;;;;;5051714;28;20498;-71
2021/08/09 06:10:50;;;;;;;0.70;0.68;;;18.30;79.90;;;;;;5051676;28;20092;-71
2021/08/09 06:13:17;;;;;;;12.15;2.15;;;18.40;79.40;;;;;;5049239;28;20032;-71
2021/08/09 06:15:44;;;;;;;9.48;2.47;;;18.30;79.80;;;;;;5046281;28;20041;-72
2021/08/09 06:18:11;;;;;;;12.40;2.70;;;18.30;80.20;;;;;;5042147;28;20024;-71
2021/08/09 06:20:38;;;;;;;14.20;2.83;;;18.30;80.60;;;;;;5052193;28;20025;-71
2021/08/09 06:23:06;;;;;;;8.93;3.08;;;18.30;80.50;;;;;;5051146;28;20484;-71
2021/08/09 06:25:33;;;;;;;18.83;3.70;;;18.30;80.60;;;;;;5051236;28;20115;-71
2021/08/09 06:27:59;;;;;;;5.28;2.05;;;18.30;80.60;;;;;;5051038;28;20029;-71
2021/08/09 06:30:24;;;;;;;6.00;2.13;;;18.30;80.80;;;;;;5053093;28;20028;-71
2021/08/09 06:32:52;;;;;;;10.77;1.02;;;18.30;81.00;;;;;;5050491;28;20029;-71
2021/08/09 06:35:20;;;;;;;7.63;2.42;;;18.20;80.80;;;;;;5049968;28;20124;-74
2021/08/09 06:37:46;;;;;;;7.80;1.23;;;18.20;81.40;;;;;;5050194;28;20024;-74
2021/08/09 06:40:13;;;;;;;8.18;2.03;;;18.20;81.60;;;;;;5052668;28;20028;-74
2021/08/09 06:42:40;;;;;;;8.38;1.10;;;18.20;81.90;;;;;;5048764;28;20049;-75
2021/08/09 06:45:15;;;;;;;8.07;1.80;;;18.20;82.10;;;;;;5039518;28;20404;-75
2021/08/09 06:47:42;;;;;;;5.03;1.02;;;18.10;82.30;;;;;;5050858;28;20041;-75
2021/08/09 06:50:09;;;;;;;14.25;1.73;;;18.10;82.50;;;;;;5052069;28;20156;-75
2021/08/09 06:52:35;;;;;;;10.45;2.00;;;18.10;83.10;;;;;;5048182;28;20476;-74
2021/08/09 06:55:01;;;;;;;11.05;1.80;;;18.10;83.20;;;;;;5039902;28;20107;-74
2021/08/09 06:57:29;;;;;;;13.43;2.85;;;18.00;83.30;;;;;;5051571;28;20029;-75
2021/08/09 06:59:58;;;;;;;9.50;2.45;;;18.10;83.50;;;;;;5048996;28;20052;-75
2021/08/09 07:02:24;;;;;;;15.18;3.20;;;18.00;83.30;;;;;;5049947;28;20499;-75
2021/08/09 07:04:51;;;;;;;5.63;1.77;;;18.00;83.60;;;;;;5046903;28;20079;-75
2021/08/09 07:07:17;;;;;;;5.90;0.95;;;18.10;83.40;;;;;;5049999;28;20488;-75
2021/08/09 07:09:44;;;;;;;0.57;0.57;;;18.10;83.50;;;;;;5045443;28;20098;-74
2021/08/09 07:12:09;;;;;;;8.18;2.22;;;18.10;83.60;;;;;;5050642;28;20037;-75
2021/08/09 07:14:36;;;;;;;4.88;1.95;;;18.10;83.90;;;;;;5049004;28;20049;-74
2021/08/09 07:17:03;;;;;;;2.42;1.20;;;18.10;83.60;;;;;;5050439;28;20040;-75
2021/08/09 07:19:29;;;;;;;3.92;1.60;;;18.10;83.90;;;;;;5049983;28;20032;-75
2021/08/09 07:21:55;;;;;;;9.82;2.28;;;18.10;84.30;;;;;;5045596;28;20067;-75
2021/08/09 07:24:21;;;;;;;6.90;2.00;;;18.10;84.40;;;;;;5051166;28;20024;-74
2021/08/09 07:26:48;;;;;;;4.65;1.67;;;18.10;84.40;;;;;;5049779;28;20060;-75
2021/08/09 07:29:15;;;;;;;8.07;2.05;;;18.10;84.50;;;;;;5046895;28;20013;-75
2021/08/09 07:31:41;;;;;;;3.92;1.20;;;18.20;84.00;;;;;;5050486;28;20393;-75
2021/08/09 07:34:07;;;;;;;3.20;1.08;;;18.20;83.90;;;;;;5047937;28;20029;-74
2021/08/09 07:36:32;;;;;;;2.33;1.58;;;18.20;84.60;;;;;;5052774;28;20120;-76
2021/08/09 07:38:58;;;;;;;15.43;2.80;;;18.20;84.70;;;;;;5049019;28;20021;-76
2021/08/09 07:41:24;;;;;;;5.13;1.10;;;18.30;85.30;;;;;;5049335;28;20593;-77
2021/08/09 07:43:50;;;;;;;12.02;2.80;;;18.30;84.90;;;;;;5048332;28;20045;-75
2021/08/09 07:46:16;;;;;;;5.90;1.35;;;18.30;85.50;;;;;;5048876;28;20037;-76
2021/08/09 07:48:43;;;;;;;18.83;1.80;;;18.30;85.00;;;;;;5048617;28;20037;-73
2021/08/09 07:51:09;;;;;;;15.05;2.67;;;18.30;85.40;;;;;;5048353;28;20025;-71
2021/08/09 07:53:34;;;;;;;12.02;2.58;;;18.30;85.50;;;;;;5048382;28;20089;-75
2021/08/09 07:56:01;;;;;;;5.97;2.20;;;18.30;85.50;;;;;;5049054;28;20021;-73
2021/08/09 07:58:28;;;;;;;12.70;3.10;;;18.40;85.70;;;;;;5049975;28;20039;-72
2021/08/09 08:00:54;;;;;;;3.78;1.75;;;18.40;85.90;;;;;;5049623;28;20028;-74
2021/08/09 08:03:20;;;;;;;4.28;1.63;;;18.50;85.20;;;;;;5049796;28;20021;-74
2021/08/09 08:05:47;;;;;;;8.48;2.95;;;18.50;85.60;;;;;;5050014;28;20060;-74
2021/08/09 08:08:13;;;;;;;7.70;1.73;;;18.50;85.60;;;;;;5049891;28;20025;-73
2021/08/09 08:10:40;;;;;;;5.45;2.05;;;18.50;85.80;;;;;;5047051;28;20507;-72
2021/08/09 08:13:05;;;;;;;5.05;1.05;;;18.50;85.80;;;;;;5036972;28;20040;-71
2021/08/09 08:15:31;;;;;;;10.00;2.47;;;18.50;85.80;;;;;;5066628;28;20112;-71
2021/08/09 08:17:57;;;;;;;14.43;2.65;;;18.50;86.00;;;;;;5046774;28;20111;-71
2021/08/09 08:20:25;;;;;;;7.50;1.70;;;18.50;86.20;;;;;;5049759;28;20108;-71
2021/08/09 08:22:51;;;;;;;9.57;2.83;;;18.60;85.90;;;;;;5049631;28;20124;-71
2021/08/09 08:25:18;;;;;;;9.15;1.90;;;18.60;86.00;;;;;;5046262;28;20032;-71
2021/08/09 08:27:46;;;;;;;5.47;1.10;;;18.70;85.90;;;;;;5049545;28;20041;-69
2021/08/09 08:30:12;;;;;;;9.55;2.05;;;18.60;85.90;;;;;;5049980;28;20436;-69
2021/08/09 08:32:39;;;;;;;2.38;1.23;;;18.70;86.20;;;;;;5049664;28;20032;-70
2021/08/09 08:35:05;;;;;;;2.65;1.73;;;18.70;86.30;;;;;;5048294;28;20396;-70
2021/08/09 08:37:31;;;;;;;1.38;0.95;;;18.70;86.40;;;;;;5051382;28;20028;-70
2021/08/09 08:39:56;;;;;;;2.85;1.20;;;18.80;86.50;;;;;;5050538;28;20033;-70
2021/08/09 08:42:23;;;;;;;10.30;1.92;;;18.70;86.50;;;;;;5045302;28;20091;-69
2021/08/09 08:44:48;;;;;;;12.15;2.25;;;18.80;86.60;;;;;;5040816;28;20485;-70
2021/08/09 08:47:19;;;;;;;4.32;1.83;;;18.80;86.50;;;;;;5047489;28;20501;-70
2021/08/09 08:49:47;;;;;;;8.13;1.13;;;18.80;86.60;;;;;;5049642;28;20025;-70
2021/08/09 08:52:16;;;;;;;5.93;2.00;;;18.80;86.60;;;;;;5045264;28;20033;-70
2021/08/09 08:54:43;;;;;;;5.40;1.50;;;18.90;86.70;;;;;;5048069;28;20051;-70
2021/08/09 08:57:16;;;;;;;7.45;2.75;;;19.00;86.70;;;;;;5051030;28;20033;-70
2021/08/09 08:59:42;;;;;;;5.05;1.58;;;18.90;86.80;;;;;;5048358;28;20021;-70
2021/08/09 09:02:08;;;;;;;9.82;2.08;;;18.90;86.60;;;;;;5050734;28;20037;-70
2021/08/09 09:04:35;;;;;;;11.18;2.10;;;19.00;86.70;;;;;;5047752;28;20477;-71
2021/08/09 09:07:06;;;;;;;10.73;2.00;;;19.10;86.80;;;;;;5049170;28;20116;-71
2021/08/09 09:09:37;;;;;;;3.63;1.50;;;19.10;86.70;;;;;;5047487;28;20056;-70
2021/08/09 09:12:13;;;;;;;10.70;2.63;;;19.10;86.30;;;;;;5050621;28;20066;-72
2021/08/09 09:14:39;;;;;;;7.60;2.40;;;19.10;86.60;;;;;;5047323;28;20064;-71
2021/08/09 09:17:05;;;;;;;11.77;1.55;;;19.20;86.30;;;;;;5049576;28;20068;-70
2021/08/09 09:19:43;;;;;;;13.18;2.40;;;19.30;86.20;;;;;;5048876;28;20058;-70
2021/08/09 09:22:20;;;;;;;5.15;1.52;;;19.30;86.20;;;;;;5049897;28;20033;-72
2021/08/09 09:24:55;;;;;;;6.72;2.53;;;19.30;86.10;;;;;;5049555;28;20021;-71
2021/08/09 09:27:27;;;;;;;8.75;2.08;;;19.30;86.10;;;;;;5048040;28;20029;-71
2021/08/09 09:29:53;;;;;;;7.03;1.42;;;19.40;86.10;;;;;;5054516;28;20048;-70
2021/08/09 09:32:20;;;;;;;10.23;2.63;;;19.40;85.90;;;;;;5053758;28;20494;-71
2021/08/09 09:34:46;;;;;;;14.10;2.78;;;19.50;86.10;;;;;;5051120;28;20032;-76
2021/08/09 09:37:22;;;;;;;2.90;0.98;;;19.50;85.60;;;;;;5051396;28;20040;-76
2021/08/09 09:39:47;;;;;;;7.47;1.40;;;19.60;85.40;;;;;;5054597;28;20032;-78
2021/08/09 09:42:15;;;;;;;7.28;2.05;;;19.70;85.20;;;;;;5048087;28;20473;-77
2021/08/09 09:44:44;;;;;;;3.53;1.50;;;19.70;85.10;;;;;;5039969;28;20079;-73
2021/08/09 09:47:24;;;;;;;2.45;1.25;;;19.80;84.90;;;;;;5053506;28;20049;-72
2021/08/09 09:49:58;;;;;;;3.75;1.23;;;19.90;85.00;;;;;;5046987;28;20036;-72
2021/08/09 09:52:34;;;;;;;5.05;1.08;;;19.90;84.90;;;;;;5050145;28;20136;-72
2021/08/09 09:55:12;;;;;;;6.20;2.00;;;19.90;84.80;;;;;;5050711;28;20025;-71
2021/08/09 09:57:38;;;;;;;26.98;3.28;;;20.00;85.00;;;;;;5048977;28;20029;-71
2021/08/09 10:00:11;;;;;;;13.60;2.88;;;20.00;85.00;;;;;;5040964;28;20472;-70
2021/08/09 10:02:41;;;;;;;9.82;1.52;;;20.10;84.70;;;;;;5048648;28;20040;-71
2021/08/09 10:05:08;;;;;;;4.25;1.48;;;20.10;84.40;;;;;;5053485;28;20506;-70
2021/08/09 10:07:35;;;;;;;4.35;1.58;;;20.20;84.10;;;;;;5042601;28;20110;-71
2021/08/09 10:10:07;;;;;;;5.10;2.13;;;20.30;83.90;;;;;;5051420;28;20021;-71
2021/08/09 10:12:33;;;;;;;9.00;2.10;;;20.20;83.70;;;;;;5053496;28;20476;-71
2021/08/09 10:15:00;;;;;;;8.95;1.98;;;20.20;83.60;;;;;;5049462;28;20059;-71
2021/08/09 10:17:31;;;;;;;2.00;1.25;;;20.20;83.40;;;;;;5052513;28;20021;-71
2021/08/09 10:20:00;;;;;;;9.52;2.17;;;20.30;83.40;;;;;;5050849;28;20033;-71
2021/08/09 10:22:26;;;;;;;2.08;1.20;;;20.30;83.10;;;;;;5052841;28;20033;-71
2021/08/09 10:24:54;;;;;;;18.30;2.70;;;20.40;83.10;;;;;;5053397;28;20037;-70
2021/08/09 10:27:48;;;;;;;10.65;2.78;;;20.50;83.10;;;;;;5052217;28;20127;-71
2021/08/09 10:30:17;;;;;;;6.97;1.15;;;20.50;82.70;;;;;;5050611;28;20798;-71
2021/08/09 10:32:52;;;;;;;1.55;1.00;;;20.50;82.50;;;;;;5042294;28;20052;-71
2021/08/09 10:35:38;;;;;;;8.73;1.67;;;20.60;82.40;;;;;;5050460;28;20041;-70
2021/08/09 10:38:14;;;;;;;1.00;0.90;;;20.60;82.20;;;;;;5052652;28;20087;-71
2021/08/09 10:40:41;;;;;;;1.75;1.17;;;20.60;82.00;;;;;;5049669;28;20032;-71
2021/08/09 10:43:10;;;;;;;4.75;1.42;;;20.60;81.80;;;;;;5053471;28;20060;-71
2021/08/09 10:45:45;;;;;;;7.00;1.67;;;20.70;81.50;;;;;;5051615;28;20061;-70
2021/08/09 10:48:34;;;;;;;6.68;1.25;;;20.70;81.90;;;;;;5052672;28;20036;-71
2021/08/09 10:51:00;;;;;;;2.15;0.65;;;20.70;81.10;;;;;;5048590;28;20025;-71
2021/08/09 10:53:25;;;;;;;1.95;0.90;;;20.80;81.20;;;;;;5043502;28;20087;-72
2021/08/09 10:55:58;;;;;;;2.08;1.25;;;20.80;80.70;;;;;;5053000;28;20055;-71
2021/08/09 10:58:42;;;;;;;4.13;1.33;;;20.80;79.90;;;;;;5049880;28;20033;-71
2021/08/09 11:01:11;;;;;;;2.97;1.17;;;20.90;79.90;;;;;;5053453;28;20291;-71
2021/08/09 11:04:02;;;;;;;3.20;1.17;;;20.80;79.90;;;;;;5053186;28;20025;-71
2021/08/09 11:06:55;;;;;;;6.20;1.25;;;20.90;79.70;;;;;;5051877;28;20511;-71
2021/08/09 11:09:30;;;;;;;1.73;0.75;;;20.90;78.90;;;;;;5049907;28;20025;-71
2021/08/09 11:12:19;;;;;;;5.25;1.13;;;20.90;78.30;;;;;;5050157;28;20498;-72
2021/08/09 11:15:19;;;;;;;3.40;0.75;;;20.90;78.10;;;;;;5049227;28;20142;-74
2021/08/09 11:17:47;;;;;;;2.13;1.05;;;20.90;78.40;;;;;;5048440;28;20025;-73
2021/08/09 11:20:20;;;;;;;2.70;0.82;;;21.00;78.50;;;;;;5052650;28;20037;-74
2021/08/09 11:23:14;;;;;;;0.50;0.50;;;21.10;78.70;;;;;;5050823;28;20060;-71
2021/08/09 11:25:42;;;;;;;;;;;21.10;77.90;;;;;;5046197;28;20033;-71
2021/08/09 11:28:18;;;;;;;5.70;1.15;;;21.20;77.60;;;;;;5047166;28;19919;-77
2021/08/09 11:31:04;;;;;;;7.43;1.40;;;21.20;77.30;;;;;;5052231;28;20167;-72
2021/08/09 11:33:38;;;;;;;2.08;0.80;;;21.20;77.20;;;;;;5051729;28;20535;-73
2021/08/09 11:36:05;;;;;;;1.60;1.20;;;21.30;77.50;;;;;;5048540;28;20171;-73
2021/08/09 11:39:00;;;;;;;5.85;0.88;;;21.30;77.10;;;;;;5046830;28;20021;-73
2021/08/09 11:41:30;;;;;;;2.88;1.20;;;21.20;77.90;;;;;;5033903;28;20037;-73
2021/08/09 11:44:08;;;;;;;4.50;2.00;;;21.20;78.20;;;;;;5047555;28;20107;-72
2021/08/09 11:46:44;;;;;;;3.10;1.48;;;21.20;78.40;;;;;;5051210;28;20056;-72
2021/08/09 11:49:09;;;;;;;1.10;0.82;;;21.20;78.80;;;;;;5049778;28;20032;-72
2021/08/09 11:51:35;;;;;;;0.43;0.43;;;21.20;78.80;;;;;;5044741;28;20037;-72
2021/08/09 11:54:03;;;;;;;1.48;0.80;;;21.20;79.20;;;;;;5046246;28;20073;-71
2021/08/09 11:56:34;;;;;;;5.28;1.77;;;21.20;78.80;;;;;;5049463;28;20037;-71
2021/08/09 11:59:11;;;;;;;4.10;1.30;;;21.10;78.60;;;;;;5050756;28;20438;-71
2021/08/09 12:01:40;;;;;;;10.45;0.57;;;21.10;78.10;;;;;;5045098;28;20048;-71
2021/08/09 12:04:08;;;;;;;1.23;0.55;;;21.10;77.90;;;;;;5052100;28;20051;-71
2021/08/09 12:06:48;;;;;;;3.13;1.00;;;21.20;77.10;;;;;;5049305;28;20086;-71
2021/08/09 12:09:16;;;;;;;0.47;0.45;;;21.10;76.50;;;;;;5046005;28;20395;-71
2021/08/09 12:11:42;;;;;;;6.72;1.08;;;21.20;77.00;;;;;;5050874;28;20025;-71
2021/08/09 12:14:13;;;;;;;3.42;1.10;;;21.20;77.00;;;;;;5046869;28;20044;-71
2021/08/09 12:16:54;;;;;;;5.90;1.27;;;21.20;76.80;;;;;;5045891;28;20487;-70
2021/08/09 12:19:35;;;;;;;2.63;1.25;;;21.30;76.50;;;;;;5050711;28;20036;-71
2021/08/09 12:22:10;;;;;;;3.03;1.17;;;21.30;76.60;;;;;;5044970;28;20361;-71
2021/08/09 12:24:36;;;;;;;5.40;1.30;;;21.40;76.70;;;;;;5044220;28;20033;-71
2021/08/09 12:27:19;;;;;;;7.15;1.63;;;21.40;76.50;;;;;;5046888;28;20056;-71
2021/08/09 12:30:05;;;;;;;5.22;1.40;;;21.50;76.40;;;;;;5049184;28;20473;-71
2021/08/09 12:32:33;;;;;;;7.47;1.27;;;21.50;76.20;;;;;;5048459;28;20047;-71
2021/08/09 12:34:59;;;;;;;3.83;1.13;;;21.70;76.40;;;;;;5047821;28;20029;-71
2021/08/09 12:37:26;;;;;;;3.45;1.33;;;21.70;76.30;;;;;;5049488;28;20538;-71
2021/08/09 12:40:06;;;;;;;4.22;1.60;;;21.70;75.90;;;;;;5050200;28;20060;-71
2021/08/09 12:42:31;;;;;;;7.25;1.13;;;21.90;75.60;;;;;;5043477;28;20477;-71
2021/08/09 12:44:57;;;;;;;12.32;2.00;;;21.90;75.80;;;;;;5044834;28;20163;-71
2021/08/09 12:47:23;;;;;;;3.50;1.02;;;22.00;76.00;;;;;;5047604;28;20033;-71
2021/08/09 12:49:49;;;;;;;3.63;0.75;;;22.00;75.80;;;;;;5050455;28;20357;-71
2021/08/09 12:52:15;;;;;;;3.90;1.13;;;22.10;75.30;;;;;;5047069;28;20408;-71
2021/08/09 12:54:41;;;;;;;2.25;1.15;;;22.10;75.10;;;;;;5047270;28;20100;-71